Time;durP1;ratioP1;P1;durP2;ratioP2;P2;SDS_P1;SDS_P2;PMS_P1;PMS_P2;Temp;Humidity;BMP_temperature;BMP_pressure;BME280_temperature;BME280_humidity;BME280_pressure;Samples;Min_cycle;Max_cycle;Signal;HPM_P1;HPM_P2
2022/01/01 00:02:04;;;;;;;48.80;25.55;;;;;;;11.58;100.00;102170.72;5072843;28;20031;-70
2022/01/01 00:04:30;;;;;;;45.03;24.90;;;;;;;11.59;100.00;102174.25;5072581;28;20107;-70
2022/01/01 00:06:55;;;;;;;43.45;23.70;;;;;;;11.58;100.00;102178.66;5072279;28;20455;-70
2022/01/01 00:09:21;;;;;;;46.67;26.20;;;;;;;11.57;100.00;102186.56;5076173;28;20036;-71
2022/01/01 00:11:46;;;;;;;42.03;21.70;;;;;;;11.58;100.00;102189.25;5076553;28;20021;-70
2022/01/01 00:14:12;;;;;;;44.42;22.88;;;;;;;11.56;100.00;102184.78;5076285;28;20082;-70
2022/01/01 00:16:37;;;;;;;42.95;22.08;;;;;;;11.58;100.00;102183.06;5076897;28;20046;-70
2022/01/01 00:19:03;;;;;;;40.90;19.23;;;;;;;11.61;100.00;102191.06;5076602;28;20028;-70
2022/01/01 00:21:28;;;;;;;40.67;18.80;;;;;;;11.66;100.00;102181.44;5076475;28;20027;-70
2022/01/01 00:23:54;;;;;;;41.55;18.40;;;;;;;11.68;100.00;102190.34;5076547;28;20016;-70
2022/01/01 00:26:19;;;;;;;39.88;18.13;;;;;;;11.65;100.00;102195.59;5076243;28;20031;-70
2022/01/01 00:28:44;;;;;;;40.92;18.63;;;;;;;11.62;100.00;102191.09;5076068;28;20040;-70
2022/01/01 00:31:10;;;;;;;40.60;17.10;;;;;;;11.62;100.00;102195.50;5076041;28;20044;-70
2022/01/01 00:33:35;;;;;;;39.92;17.08;;;;;;;11.63;100.00;102197.28;5076044;28;20471;-70
2022/01/01 00:36:01;;;;;;;42.20;18.48;;;;;;;11.61;100.00;102199.91;5076335;28;20024;-71
2022/01/01 00:38:26;;;;;;;39.28;17.80;;;;;;;11.62;100.00;102190.19;5076018;28;20025;-70
2022/01/01 00:40:52;;;;;;;40.70;17.48;;;;;;;11.60;100.00;102190.16;5075991;28;20024;-70
2022/01/01 00:43:17;;;;;;;40.13;17.63;;;;;;;11.60;100.00;102189.28;5076193;28;20387;-70
2022/01/01 00:45:42;;;;;;;41.80;17.15;;;;;;;11.56;100.00;102190.06;5075817;28;20467;-70
2022/01/01 00:48:08;;;;;;;42.33;17.75;;;;;;;11.56;100.00;102184.78;5075691;28;20145;-70
2022/01/01 00:50:33;;;;;;;36.80;16.27;;;;;;;11.55;100.00;102181.25;5075895;28;20029;-70
2022/01/01 00:52:59;;;;;;;40.67;17.35;;;;;;;11.52;100.00;102170.59;5075705;28;20125;-70
2022/01/01 00:55:24;;;;;;;42.90;16.98;;;;;;;11.51;100.00;102174.09;5075530;28;20037;-70
2022/01/01 00:57:50;;;;;;;39.53;17.83;;;;;;;11.50;100.00;102186.44;5075822;28;20112;-70
2022/01/01 01:00:15;;;;;;;40.40;17.73;;;;;;;11.47;100.00;102191.63;5075638;28;20025;-70
2022/01/01 01:02:41;;;;;;;38.20;17.02;;;;;;;11.47;100.00;102183.69;5075593;28;20020;-70
2022/01/01 01:05:07;;;;;;;38.17;17.08;;;;;;;11.45;100.00;102188.09;5075790;28;20115;-70
2022/01/01 01:07:32;;;;;;;40.47;17.10;;;;;;;11.44;100.00;102188.94;5075351;28;20472;-70
2022/01/01 01:09:57;;;;;;;40.15;17.10;;;;;;;11.41;100.00;102182.69;5075834;28;20055;-70
2022/01/01 01:12:26;;;;;;;36.88;15.95;;;;;;;11.39;100.00;102187.94;5075310;28;20120;-71
2022/01/01 01:14:53;;;;;;;39.70;17.33;;;;;;;11.38;100.00;102190.56;5075075;28;20028;-71
2022/01/01 01:17:18;;;;;;;38.33;16.60;;;;;;;11.38;100.00;102188.81;5075380;28;20025;-71
2022/01/01 01:19:44;;;;;;;38.78;16.95;;;;;;;11.38;100.00;102186.16;5074380;28;20032;-71
2022/01/01 01:22:09;;;;;;;41.90;17.98;;;;;;;11.39;100.00;102177.38;5075254;28;20028;-72
2022/01/01 01:24:35;;;;;;;37.92;17.30;;;;;;;11.39;100.00;102181.75;5075429;28;20028;-71
2022/01/01 01:27:03;;;;;;;39.05;18.17;;;;;;;11.40;100.00;102186.19;5075185;28;20034;-71
2022/01/01 01:29:30;;;;;;;37.58;17.05;;;;;;;11.42;100.00;102189.78;5074959;28;20048;-71
2022/01/01 01:31:56;;;;;;;39.67;18.08;;;;;;;11.42;100.00;102197.72;5071301;28;20033;-71
2022/01/01 01:34:22;;;;;;;38.20;17.23;;;;;;;11.43;100.00;102195.13;5075027;28;20529;-71
2022/01/01 01:36:47;;;;;;;36.92;16.95;;;;;;;11.45;100.00;102196.03;5074829;28;20100;-71
2022/01/01 01:39:12;;;;;;;37.15;16.80;;;;;;;11.43;100.00;102200.41;5075095;28;20032;-71
2022/01/01 01:41:38;;;;;;;39.58;15.95;;;;;;;11.44;100.00;102196.88;5074843;28;20443;-71
2022/01/01 01:44:22;;;;;;;37.70;16.60;;;;;;;11.44;100.00;102206.59;5074785;28;20033;-71
2022/01/01 01:46:48;;;;;;;42.85;18.00;;;;;;;11.32;100.00;102208.09;5074937;28;20353;-71
2022/01/01 01:49:13;;;;;;;40.45;17.83;;;;;;;11.30;100.00;102203.59;5074821;28;20085;-71
2022/01/01 01:51:38;;;;;;;40.08;17.67;;;;;;;11.38;100.00;102217.03;5074650;28;20025;-71
2022/01/01 01:54:05;;;;;;;43.95;18.60;;;;;;;11.33;100.00;102216.94;5074504;28;20059;-71
2022/01/01 01:56:31;;;;;;;42.17;17.55;;;;;;;11.34;100.00;102216.97;5074930;28;20029;-71
2022/01/01 01:58:56;;;;;;;42.60;19.23;;;;;;;11.32;100.00;102218.69;5070445;28;20036;-71
2022/01/01 02:01:24;;;;;;;39.35;17.88;;;;;;;11.32;100.00;102217.78;5074346;28;20031;-71
2022/01/01 02:03:49;;;;;;;39.05;18.80;;;;;;;11.34;100.00;102213.41;5074675;28;20529;-71
2022/01/01 02:06:16;;;;;;;39.10;18.00;;;;;;;11.38;100.00;102217.94;5074721;28;20060;-71
2022/01/01 02:08:42;;;;;;;36.47;17.75;;;;;;;11.36;100.00;102214.38;5074456;28;20104;-70
2022/01/01 02:11:08;;;;;;;40.53;18.40;;;;;;;11.40;100.00;102213.59;5074402;28;20439;-70
2022/01/01 02:13:35;;;;;;;38.88;17.13;;;;;;;11.38;100.00;102223.22;5074118;28;20107;-70
2022/01/01 02:16:39;;;;;;;40.90;17.95;;;;;;;11.36;100.00;102218.75;5074467;28;20028;-70
2022/01/01 02:18:57;;;;;;;40.90;18.20;;;;;;;11.39;100.00;102214.44;5069983;28;20086;-70
2022/01/01 02:21:23;;;;;;;38.03;17.88;;;;;;;11.38;100.00;102214.41;5074549;28;20025;-70
2022/01/01 02:23:56;;;;;;;41.35;18.75;;;;;;;11.44;100.00;102198.63;5074037;28;20430;-70
2022/01/01 02:26:28;;;;;;;39.83;17.73;;;;;;;11.45;100.00;102197.78;5074465;28;20402;-70
2022/01/01 02:28:53;;;;;;;40.33;19.38;;;;;;;11.44;100.00;102193.34;5073668;28;20041;-71
2022/01/01 02:31:18;;;;;;;36.88;18.08;;;;;;;11.49;100.00;102200.53;5074280;28;20463;-70
2022/01/01 02:33:44;;;;;;;38.55;18.55;;;;;;;11.57;100.00;102203.34;5074106;28;20074;-70
2022/01/01 02:36:10;;;;;;;35.38;17.75;;;;;;;11.52;100.00;102203.25;5073988;28;20029;-70
2022/01/01 02:38:36;;;;;;;35.20;19.00;;;;;;;11.50;100.00;102201.41;5072088;28;20079;-70
2022/01/01 02:41:03;;;;;;;39.60;18.88;;;;;;;11.50;100.00;102202.34;5073589;28;20024;-70
2022/01/01 02:43:28;;;;;;;38.63;19.13;;;;;;;11.50;100.00;102204.97;5073685;28;20029;-70
2022/01/01 02:45:54;;;;;;;35.95;18.58;;;;;;;11.52;100.00;102213.84;5073643;28;20437;-71
2022/01/01 02:48:20;;;;;;;38.60;19.10;;;;;;;11.50;100.00;102210.28;5073497;28;20027;-71
2022/01/01 02:50:45;;;;;;;38.40;18.48;;;;;;;11.57;100.00;102198.03;5073623;28;20020;-71
2022/01/01 02:53:15;;;;;;;37.60;19.73;;;;;;;11.51;100.00;102190.84;5073355;28;20046;-71
2022/01/01 02:55:42;;;;;;;39.55;19.75;;;;;;;11.53;100.00;102196.19;5073362;28;20403;-71
2022/01/01 02:58:12;;;;;;;42.70;20.23;;;;;;;11.52;100.00;102182.06;5072088;28;20020;-71
2022/01/01 03:00:38;;;;;;;36.67;20.20;;;;;;;11.52;100.00;102175.88;5073442;28;20479;-72
2022/01/01 03:03:04;;;;;;;38.58;20.23;;;;;;;11.59;100.00;102168.94;5073165;28;20025;-71
2022/01/01 03:05:30;;;;;;;36.65;19.00;;;;;;;11.55;100.00;102169.72;5072005;28;20493;-71
2022/01/01 03:07:56;;;;;;;36.03;18.90;;;;;;;11.51;100.00;102177.63;5073378;28;20028;-71
2022/01/01 03:10:22;;;;;;;36.28;18.92;;;;;;;11.50;100.00;102175.84;5071734;28;20392;-71
2022/01/01 03:12:47;;;;;;;37.38;19.25;;;;;;;11.49;100.00;102184.66;5073169;28;20024;-71
2022/01/01 03:15:12;;;;;;;38.33;20.67;;;;;;;11.54;100.00;102182.09;5072911;28;20102;-71
2022/01/01 03:17:38;;;;;;;36.67;19.60;;;;;;;11.49;100.00;102182.00;5073041;28;20463;-71
2022/01/01 03:20:05;;;;;;;37.55;18.67;;;;;;;11.55;100.00;102182.97;5073101;28;20107;-71
2022/01/01 03:22:30;;;;;;;37.60;19.60;;;;;;;11.57;100.00;102175.97;5073335;28;20021;-71
2022/01/01 03:24:55;;;;;;;38.67;18.92;;;;;;;11.59;100.00;102183.09;5072847;28;20526;-71
2022/01/01 03:27:21;;;;;;;35.72;18.60;;;;;;;11.56;100.00;102177.72;5072890;28;20032;-71
2022/01/01 03:29:46;;;;;;;35.00;17.83;;;;;;;11.58;100.00;102178.66;5072692;28;20036;-71
2022/01/01 03:32:11;;;;;;;36.42;17.27;;;;;;;11.60;100.00;102176.03;5072810;28;20101;-71
2022/01/01 03:34:37;;;;;;;37.25;17.85;;;;;;;11.56;100.00;102168.88;5073147;28;20119;-72
2022/01/01 03:37:02;;;;;;;36.53;17.70;;;;;;;11.55;100.00;102168.00;5073132;28;20025;-71
2022/01/01 03:39:28;;;;;;;34.33;17.42;;;;;;;11.56;100.00;102171.53;5072734;28;20034;-71
2022/01/01 03:41:53;;;;;;;33.00;15.95;;;;;;;11.54;100.00;102166.19;5072838;28;20029;-72
2022/01/01 03:44:19;;;;;;;34.88;16.80;;;;;;;11.56;100.00;102174.19;5072069;28;20078;-71
2022/01/01 03:46:44;;;;;;;34.67;16.52;;;;;;;11.49;100.00;102170.53;5072851;28;20032;-71
2022/01/01 03:49:10;;;;;;;34.08;16.20;;;;;;;11.44;100.00;102165.09;5072486;28;20021;-71
2022/01/01 03:51:35;;;;;;;33.13;16.40;;;;;;;11.42;100.00;102166.84;5072561;28;20078;-71
2022/01/01 03:54:01;;;;;;;33.80;16.00;;;;;;;11.50;100.00;102167.91;5072820;28;20032;-71
2022/01/01 03:56:26;;;;;;;35.97;16.33;;;;;;;11.48;100.00;102164.31;5072930;28;20024;-72
2022/01/01 03:58:51;;;;;;;32.63;15.63;;;;;;;11.49;100.00;102170.53;5072462;28;20033;-71
2022/01/01 04:01:17;;;;;;;31.35;14.35;;;;;;;11.49;100.00;102163.47;5072640;28;20064;-71
2022/01/01 04:03:43;;;;;;;31.83;14.20;;;;;;;11.50;100.00;102165.25;5072685;28;20020;-71
2022/01/01 04:06:09;;;;;;;30.00;13.63;;;;;;;11.52;100.00;102167.94;5072413;28;20532;-71
2022/01/01 04:08:34;;;;;;;30.17;13.88;;;;;;;11.51;100.00;102168.78;5072550;28;20024;-71
2022/01/01 04:10:59;;;;;;;29.50;13.35;;;;;;;11.55;100.00;102172.38;5072448;28;20024;-71
2022/01/01 04:13:25;;;;;;;30.50;13.13;;;;;;;11.56;100.00;102169.75;5072247;28;20098;-70
2022/01/01 04:15:50;;;;;;;30.80;13.82;;;;;;;11.58;100.00;102161.88;5072364;28;20104;-71
2022/01/01 04:18:25;;;;;;;30.15;13.05;;;;;;;11.54;100.00;102155.59;5072271;28;20024;-70
2022/01/01 04:20:51;;;;;;;31.13;13.38;;;;;;;11.52;100.00;102162.66;5072444;28;20025;-72
2022/01/01 04:23:16;;;;;;;30.98;12.98;;;;;;;11.50;100.00;102159.97;5072513;28;20032;-71
2022/01/01 04:25:43;;;;;;;29.65;12.55;;;;;;;11.51;100.00;102156.44;5072128;28;20029;-72
2022/01/01 04:28:09;;;;;;;30.58;11.88;;;;;;;11.60;100.00;102149.56;5072040;28;20579;-70
2022/01/01 04:30:34;;;;;;;29.00;11.88;;;;;;;11.66;100.00;102154.97;5072254;28;20108;-71
2022/01/01 04:33:00;;;;;;;28.90;11.48;;;;;;;11.62;100.00;102159.31;5072325;28;20103;-71
2022/01/01 04:35:25;;;;;;;28.08;11.40;;;;;;;11.62;100.00;102158.41;5072296;28;20111;-70
2022/01/01 04:37:50;;;;;;;27.95;11.00;;;;;;;11.62;100.00;102172.56;5072340;28;20059;-71
2022/01/01 04:40:16;;;;;;;28.13;11.73;;;;;;;11.64;100.00;102159.34;5072105;28;20033;-71
2022/01/01 04:42:42;;;;;;;30.60;12.07;;;;;;;11.63;100.00;102170.81;5072077;28;20043;-71
2022/01/01 04:45:07;;;;;;;27.90;11.13;;;;;;;11.63;100.00;102179.63;5072146;28;20024;-71
2022/01/01 04:47:33;;;;;;;27.52;11.20;;;;;;;11.61;100.00;102169.88;5072040;28;20569;-71
2022/01/01 04:49:58;;;;;;;29.30;11.75;;;;;;;11.58;100.00;102180.41;5070609;28;20072;-71
2022/01/01 04:52:23;;;;;;;28.42;11.57;;;;;;;11.56;100.00;102175.06;5072099;28;20123;-71
2022/01/01 04:54:49;;;;;;;29.23;11.90;;;;;;;11.58;100.00;102183.06;5072726;28;20056;-71
2022/01/01 04:57:14;;;;;;;27.40;11.10;;;;;;;11.61;100.00;102191.97;5076078;28;20082;-71
2022/01/01 04:59:42;;;;;;;29.65;11.32;;;;;;;11.62;100.00;102187.53;5075877;28;20086;-71
2022/01/01 05:02:08;;;;;;;28.55;12.15;;;;;;;11.61;100.00;102183.13;5075797;28;20020;-71
2022/01/01 05:04:35;;;;;;;29.60;11.25;;;;;;;11.62;100.00;102183.16;5075680;28;20344;-71
2022/01/01 05:07:01;;;;;;;29.23;11.52;;;;;;;11.62;100.00;102184.91;5075864;28;20032;-71
2022/01/01 05:09:28;;;;;;;30.45;11.65;;;;;;;11.58;100.00;102188.38;5075784;28;20528;-71
2022/01/01 05:11:54;;;;;;;30.58;11.85;;;;;;;11.57;100.00;102187.44;5074319;28;20048;-71
2022/01/01 05:14:19;;;;;;;28.67;11.65;;;;;;;11.57;100.00;102195.41;5075244;28;20032;-72
2022/01/01 05:16:45;;;;;;;29.27;11.60;;;;;;;11.57;100.00;102182.16;5075479;28;20077;-71
2022/01/01 05:19:10;;;;;;;28.20;11.32;;;;;;;11.55;100.00;102188.28;5073882;28;20029;-71
2022/01/01 05:21:36;;;;;;;28.17;11.48;;;;;;;11.56;100.00;102198.00;5075224;28;20379;-70
2022/01/01 05:24:05;;;;;;;28.58;11.93;;;;;;;11.52;100.00;102205.91;5075347;28;20024;-71
2022/01/01 05:26:31;;;;;;;27.67;11.63;;;;;;;11.54;100.00;102200.63;5071837;28;20032;-71
2022/01/01 05:28:56;;;;;;;28.67;12.05;;;;;;;11.52;100.00;102192.66;5075000;28;20047;-71
2022/01/01 05:31:22;;;;;;;28.67;11.93;;;;;;;11.49;100.00;102195.25;5075038;28;20025;-70
2022/01/01 05:33:50;;;;;;;28.55;11.73;;;;;;;11.51;100.00;102198.81;5075408;28;20467;-71
2022/01/01 05:36:17;;;;;;;30.02;12.02;;;;;;;11.49;100.00;102197.88;5075008;28;20161;-71
2022/01/01 05:38:43;;;;;;;28.65;11.50;;;;;;;11.49;100.00;102197.00;5073563;28;20033;-71
2022/01/01 05:41:08;;;;;;;28.13;10.77;;;;;;;11.47;100.00;102188.13;5075064;28;20027;-70
2022/01/01 05:43:34;;;;;;;28.33;11.55;;;;;;;11.48;100.00;102193.44;5074930;28;20028;-71
2022/01/01 05:46:00;;;;;;;28.30;11.40;;;;;;;11.54;100.00;102197.09;5074772;28;20127;-71
2022/01/01 05:48:26;;;;;;;29.85;11.30;;;;;;;11.51;100.00;102193.50;5074933;28;20466;-71
2022/01/01 05:50:52;;;;;;;27.33;10.95;;;;;;;11.51;100.00;102198.81;5074701;28;20033;-70
2022/01/01 05:53:17;;;;;;;29.52;11.23;;;;;;;11.49;100.00;102189.06;5074724;28;20099;-71
2022/01/01 05:55:43;;;;;;;27.25;11.20;;;;;;;11.50;100.00;102197.03;5074789;28;20017;-72
2022/01/01 05:58:08;;;;;;;28.00;10.50;;;;;;;11.48;100.00;102185.50;5074552;28;20031;-71
2022/01/01 06:00:35;;;;;;;28.10;11.10;;;;;;;11.47;100.00;102185.47;5074958;28;20035;-71
2022/01/01 06:03:00;;;;;;;27.23;10.00;;;;;;;11.57;100.00;102190.09;5074772;28;20019;-70
2022/01/01 06:05:30;;;;;;;26.52;10.23;;;;;;;11.62;100.00;102177.88;5074392;28;20460;-71
2022/01/01 06:07:57;;;;;;;25.75;10.10;;;;;;;11.58;100.00;102181.31;5074641;28;20028;-71
2022/01/01 06:10:23;;;;;;;25.15;9.20;;;;;;;11.67;100.00;102177.94;5074877;28;20383;-71
2022/01/01 06:12:48;;;;;;;25.98;9.35;;;;;;;11.52;100.00;102171.47;5074379;28;20016;-71
2022/01/01 06:15:14;;;;;;;24.52;9.27;;;;;;;11.43;100.00;102168.63;5074264;28;20031;-71
2022/01/01 06:17:39;;;;;;;27.30;9.30;;;;;;;11.39;100.00;102165.84;5074178;28;20052;-71
2022/01/01 06:20:05;;;;;;;27.17;9.95;;;;;;;11.29;100.00;102175.38;5074166;28;20016;-71
2022/01/01 06:22:30;;;;;;;25.92;9.48;;;;;;;11.23;100.00;102164.66;5074432;28;20028;-71
2022/01/01 06:24:55;;;;;;;28.50;9.63;;;;;;;11.18;100.00;102166.28;5074051;28;20017;-71
2022/01/01 06:27:21;;;;;;;25.98;9.65;;;;;;;11.07;100.00;102172.22;5073884;28;20044;-71
2022/01/01 06:29:47;;;;;;;26.02;9.70;;;;;;;11.06;100.00;102183.66;5074466;28;20177;-71
2022/01/01 06:32:13;;;;;;;29.40;9.65;;;;;;;11.14;100.00;102186.50;5074063;28;20382;-71
2022/01/01 06:34:38;;;;;;;26.50;9.70;;;;;;;11.07;100.00;102174.88;5073839;28;20518;-71
2022/01/01 06:37:04;;;;;;;26.05;9.60;;;;;;;11.05;100.00;102179.22;5074291;28;20418;-71
2022/01/01 06:39:29;;;;;;;25.48;8.70;;;;;;;11.13;100.00;102182.06;5068352;28;20036;-71
2022/01/01 06:41:55;;;;;;;26.25;9.20;;;;;;;11.07;100.00;102185.47;5073726;28;20086;-71
2022/01/01 06:44:20;;;;;;;26.63;9.38;;;;;;;11.06;100.00;102186.31;5073816;28;20074;-70
2022/01/01 06:46:45;;;;;;;23.98;8.45;;;;;;;10.97;100.00;102178.16;5073551;28;20027;-71
2022/01/01 06:49:11;;;;;;;24.40;8.57;;;;;;;11.02;100.00;102187.09;5073642;28;20111;-70
2022/01/01 06:51:36;;;;;;;26.45;9.30;;;;;;;10.98;100.00;102182.59;5073547;28;20107;-71
2022/01/01 06:54:03;;;;;;;25.88;8.48;;;;;;;10.90;100.00;102176.22;5073804;28;20031;-70
2022/01/01 06:56:28;;;;;;;25.42;8.63;;;;;;;10.94;100.00;102178.09;5073612;28;20545;-70
2022/01/01 06:58:53;;;;;;;25.85;8.18;;;;;;;10.97;100.00;102181.69;5073639;28;20028;-70
2022/01/01 07:01:19;;;;;;;26.10;8.50;;;;;;;11.03;100.00;102186.25;5073266;28;20380;-70
2022/01/01 07:03:44;;;;;;;24.95;9.02;;;;;;;11.13;100.00;102196.19;5073440;28;20024;-70
2022/01/01 07:06:09;;;;;;;26.02;8.57;;;;;;;11.05;100.00;102188.91;5073153;28;20024;-71
2022/01/01 07:08:35;;;;;;;24.10;8.65;;;;;;;11.08;100.00;102200.50;5073281;28;20059;-71
2022/01/01 07:11:00;;;;;;;25.80;8.02;;;;;;;11.07;100.00;102205.75;5073629;28;20036;-70
2022/01/01 07:13:25;;;;;;;25.73;7.75;;;;;;;11.11;100.00;102216.44;5073028;28;20109;-70
2022/01/01 07:15:52;;;;;;;24.55;8.20;;;;;;;11.07;100.00;102219.88;5071999;28;20052;-71
2022/01/01 07:18:17;;;;;;;26.02;8.13;;;;;;;11.08;100.00;102219.00;5072844;28;20032;-71
2022/01/01 07:20:42;;;;;;;25.13;8.15;;;;;;;11.10;100.00;102219.94;5072794;28;20017;-72
2022/01/01 07:23:09;;;;;;;24.30;7.93;;;;;;;11.08;100.00;102207.50;5071805;28;20029;-70
2022/01/01 07:25:35;;;;;;;24.23;8.27;;;;;;;11.09;100.00;102201.38;5073099;28;20036;-71
2022/01/01 07:28:00;;;;;;;27.30;8.52;;;;;;;11.04;100.00;102210.94;5072811;28;20049;-71
2022/01/01 07:30:25;;;;;;;27.25;8.73;;;;;;;11.00;100.00;102215.28;5073072;28;20024;-71
2022/01/01 07:32:52;;;;;;;26.88;8.93;;;;;;;10.98;100.00;102217.00;5072851;28;20039;-71
2022/01/01 07:35:19;;;;;;;24.52;8.18;;;;;;;11.03;100.00;102223.28;5072507;28;20035;-71
2022/01/01 07:37:45;;;;;;;25.08;8.15;;;;;;;10.98;100.00;102220.53;5072924;28;20467;-72
2022/01/01 07:40:13;;;;;;;25.00;8.63;;;;;;;11.04;100.00;102234.75;5072792;28;20086;-72
2022/01/01 07:42:38;;;;;;;25.20;8.40;;;;;;;10.96;100.00;102229.28;5072902;28;20016;-72
2022/01/01 07:45:05;;;;;;;25.75;8.50;;;;;;;10.96;100.00;102230.16;5072912;28;20047;-71
2022/01/01 07:47:31;;;;;;;25.25;8.32;;;;;;;10.99;100.00;102227.63;5065753;28;20028;-75
2022/01/01 07:49:57;;;;;;;26.27;8.65;;;;;;;10.98;100.00;102233.75;5067435;28;20378;-74
2022/01/01 07:52:22;;;;;;;24.90;8.35;;;;;;;10.96;100.00;102235.47;5071406;28;20029;-77
2022/01/01 07:54:47;;;;;;;24.10;8.02;;;;;;;11.04;100.00;102235.66;5071086;28;20028;-78
2022/01/01 07:57:13;;;;;;;25.02;8.10;;;;;;;10.99;100.00;102234.66;5071065;28;20035;-71
2022/01/01 07:59:38;;;;;;;24.52;7.90;;;;;;;10.98;100.00;102235.53;5071032;28;20024;-72
2022/01/01 08:02:04;;;;;;;22.48;7.68;;;;;;;11.03;100.00;102238.28;5071030;28;20150;-74
2022/01/01 08:04:30;;;;;;;23.25;7.25;;;;;;;11.01;100.00;102240.88;5071243;28;20464;-78
2022/01/01 08:06:55;;;;;;;22.48;7.70;;;;;;;11.01;100.00;102238.25;5071393;28;20028;-71
2022/01/01 08:09:21;;;;;;;24.33;8.05;;;;;;;11.07;100.00;102232.22;5070532;28;20052;-74
2022/01/01 08:11:46;;;;;;;24.45;8.00;;;;;;;11.06;100.00;102233.94;5070889;28;20029;-71
2022/01/01 08:14:12;;;;;;;23.80;7.72;;;;;;;11.07;100.00;102237.50;5071053;28;20033;-70
2022/01/01 08:16:56;;;;;;;23.20;7.80;;;;;;;11.06;100.00;102248.94;5071016;28;20476;-72
2022/01/01 08:19:22;;;;;;;24.17;7.88;;;;;;;11.07;100.00;102248.97;5070434;28;20082;-71
2022/01/01 08:21:47;;;;;;;25.83;8.20;;;;;;;11.05;100.00;102240.06;5071116;28;20029;-73
2022/01/01 08:24:12;;;;;;;24.48;8.00;;;;;;;11.07;100.00;102245.44;5071236;28;20028;-71
2022/01/01 08:26:37;;;;;;;24.83;8.32;;;;;;;11.08;100.00;102240.19;5071126;28;20035;-71
2022/01/01 08:29:03;;;;;;;23.55;8.00;;;;;;;11.09;100.00;102236.66;5071963;28;20122;-71
2022/01/01 08:31:28;;;;;;;23.98;8.32;;;;;;;11.12;100.00;102244.66;5073615;28;20021;-70
2022/01/01 08:33:53;;;;;;;24.20;8.15;;;;;;;11.14;100.00;102247.38;5074444;28;20016;-71
2022/01/01 08:36:19;;;;;;;25.52;8.40;;;;;;;11.11;100.00;102245.53;5074456;28;20104;-70
2022/01/01 08:38:44;;;;;;;24.52;9.02;;;;;;;11.09;100.00;102244.59;5074210;28;20052;-72
2022/01/01 08:41:09;;;;;;;26.15;8.88;;;;;;;11.09;100.00;102241.94;5074132;28;20116;-72
2022/01/01 08:43:36;;;;;;;23.27;8.25;;;;;;;11.04;100.00;102240.03;5074166;28;20016;-71
2022/01/01 08:46:01;;;;;;;26.38;8.90;;;;;;;10.98;100.00;102244.34;5074472;28;20483;-71
2022/01/01 08:48:27;;;;;;;26.23;8.70;;;;;;;10.97;100.00;102246.94;5073721;28;20035;-73
2022/01/01 08:50:52;;;;;;;25.92;9.05;;;;;;;10.97;100.00;102242.53;5072986;28;20035;-80
2022/01/01 08:53:17;;;;;;;27.15;9.73;;;;;;;11.05;100.00;102248.03;5074473;28;20489;-77
2022/01/01 08:55:43;;;;;;;26.98;9.40;;;;;;;11.02;100.00;102252.34;5073488;28;20112;-75
2022/01/01 08:58:08;;;;;;;26.67;9.40;;;;;;;11.02;100.00;102253.25;5073646;28;20095;-77
2022/01/01 09:00:33;;;;;;;25.00;9.73;;;;;;;10.98;100.00;102233.75;5074097;28;20020;-76
2022/01/01 09:02:59;;;;;;;24.48;8.93;;;;;;;11.05;100.00;102240.06;5074469;28;20032;-76
2022/01/01 09:05:26;;;;;;;25.83;9.63;;;;;;;11.04;100.00;102240.97;5074019;28;20020;-74
2022/01/01 09:07:52;;;;;;;23.88;9.15;;;;;;;11.03;100.00;102240.91;5073550;28;20050;-74
2022/01/01 09:10:19;;;;;;;24.30;8.98;;;;;;;11.10;100.00;102240.22;5073973;28;20519;-73
2022/01/01 09:12:44;;;;;;;26.38;9.57;;;;;;;11.06;100.00;102233.94;5073382;28;20376;-74
2022/01/01 09:15:10;;;;;;;25.58;9.60;;;;;;;11.08;100.00;102232.25;5072522;28;20025;-76
2022/01/01 09:17:35;;;;;;;27.65;9.88;;;;;;;11.12;100.00;102234.09;5075202;28;20492;-76
2022/01/01 09:20:00;;;;;;;27.60;10.20;;;;;;;11.13;100.00;102227.94;5075335;28;20032;-76
2022/01/01 09:22:26;;;;;;;25.58;9.60;;;;;;;11.09;100.00;102234.00;5075062;28;20047;-74
2022/01/01 09:24:51;;;;;;;25.80;10.07;;;;;;;11.08;100.00;102233.97;5075455;28;20036;-76
2022/01/01 09:27:18;;;;;;;24.27;9.50;;;;;;;11.12;100.00;102230.56;5075004;28;20139;-76
2022/01/01 09:29:43;;;;;;;26.40;9.90;;;;;;;11.13;100.00;102227.06;5075319;28;20567;-77
2022/01/01 09:32:10;;;;;;;24.67;9.18;;;;;;;11.16;100.00;102222.72;5075251;28;20514;-76
2022/01/01 09:34:35;;;;;;;24.95;9.57;;;;;;;11.18;100.00;102225.41;5074949;28;20054;-76
2022/01/01 09:37:01;;;;;;;25.38;9.88;;;;;;;11.18;100.00;102225.41;5074980;28;20032;-74
2022/01/01 09:39:26;;;;;;;23.20;9.15;;;;;;;11.20;100.00;102233.38;5074009;28;20441;-76
2022/01/01 09:41:52;;;;;;;25.23;9.48;;;;;;;11.19;100.00;102234.25;5074279;28;20020;-75
2022/01/01 09:44:18;;;;;;;25.80;10.30;;;;;;;11.18;100.00;102235.09;5074912;28;20024;-70
2022/01/01 09:46:46;;;;;;;24.95;10.20;;;;;;;11.15;100.00;102220.94;5075005;28;20056;-76
2022/01/01 09:49:18;;;;;;;25.85;10.18;;;;;;;11.21;100.00;102227.22;5074842;28;20067;-76
2022/01/01 09:51:44;;;;;;;24.52;9.43;;;;;;;11.16;100.00;102221.84;5074557;28;20054;-76
2022/01/01 09:54:10;;;;;;;27.13;10.10;;;;;;;11.16;100.00;102219.19;5074814;28;20106;-76
2022/01/01 09:56:36;;;;;;;25.00;10.02;;;;;;;11.16;100.00;102214.78;5073319;28;20382;-76
2022/01/01 09:59:02;;;;;;;26.25;9.20;;;;;;;11.26;100.00;102217.66;5074517;28;20112;-77
2022/01/01 10:01:27;;;;;;;24.73;9.65;;;;;;;11.20;100.00;102207.81;5072637;28;20017;-76
2022/01/01 10:03:53;;;;;;;23.98;9.55;;;;;;;11.22;100.00;102213.16;5071330;28;20031;-71
2022/01/01 10:06:22;;;;;;;24.85;9.43;;;;;;;11.27;100.00;102211.47;5073069;28;20064;-71
2022/01/01 10:08:55;;;;;;;27.95;9.63;;;;;;;11.28;100.00;102203.56;5073406;28;20028;-70
2022/01/01 10:11:21;;;;;;;26.20;9.70;;;;;;;11.37;100.00;102197.59;5069695;28;20115;-71
2022/01/01 10:13:47;;;;;;;24.83;10.70;;;;;;;11.36;100.00;102203.78;5072434;28;20159;-71
2022/01/01 10:16:14;;;;;;;24.58;10.07;;;;;;;11.39;100.00;102193.25;5072966;28;20032;-68
2022/01/01 10:18:45;;;;;;;24.42;9.70;;;;;;;11.39;100.00;102190.59;5073017;28;20389;-68
2022/01/01 10:21:14;;;;;;;23.63;9.73;;;;;;;11.45;100.00;102188.09;5072218;28;20035;-68
2022/01/01 10:23:42;;;;;;;24.35;9.88;;;;;;;11.50;100.00;102175.84;5072520;28;20163;-68
2022/01/01 10:29:26;;;;;;;24.70;10.23;;;;;;;11.47;100.00;102173.09;5072236;28;20089;-68
2022/01/01 10:31:59;;;;;;;25.00;10.32;;;;;;;11.53;100.00;102172.34;5072025;28;20023;-68
2022/01/01 10:34:28;;;;;;;24.35;10.02;;;;;;;11.58;100.00;102177.78;5071841;28;20475;-68
2022/01/01 10:36:54;;;;;;;23.55;9.50;;;;;;;11.69;100.00;102170.91;5072569;28;20494;-68
2022/01/01 10:39:21;;;;;;;23.98;9.20;;;;;;;11.88;100.00;102160.72;5072545;28;20036;-68
2022/01/01 10:41:56;;;;;;;25.23;9.32;;;;;;;12.06;100.00;102177.00;5072264;28;20113;-69
2022/01/01 10:44:26;;;;;;;24.60;9.45;;;;;;;12.20;100.00;102172.88;5068097;28;20095;-70
2022/01/01 10:46:51;;;;;;;22.05;9.02;;;;;;;12.35;100.00;102166.06;5069362;28;20131;-71
2022/01/01 10:50:03;;;;;;;23.35;9.15;;;;;;;12.53;100.00;102152.22;5072450;28;20515;-70
2022/01/01 10:52:28;;;;;;;22.33;8.80;;;;;;;12.89;100.00;102141.31;5071058;28;20036;-71
2022/01/01 10:55:02;;;;;;;23.27;8.48;;;;;;;12.98;100.00;102144.97;5069423;28;20028;-70
2022/01/01 10:57:36;;;;;;;23.25;8.82;;;;;;;12.85;100.00;102147.44;5069134;28;20028;-71
2022/01/01 11:00:17;;;;;;;22.88;8.38;;;;;;;12.71;100.00;102131.31;5071780;28;20032;-70
2022/01/01 11:02:47;;;;;;;24.45;9.15;;;;;;;12.51;100.00;102128.31;5072128;28;20441;-70
2022/01/01 11:05:13;;;;;;;23.33;8.40;;;;;;;12.52;100.00;102146.03;5071896;28;20029;-69